Rhourd El Adra — 7TBS — position and weather

sailwx.info

Track history (hours):
 
Tides and Currents Weather Stations Pressure Air Temp Water Temp Dewpoint Dewpoint Depression Visibility Wind Speed Wind Dir Waves Ship Positions

Rhourd El Adra

Last reported at 2014-Aug-28 03:33 UTC. Time now 2014-Aug-28 05:29 UTC.
Position N 36°41' E 000°04'.

Length 156 m; draft 7.4 m.

Type: Ship (hazmat cat C). MMSI: 605026210.

Date/timePositionNaut miles runAvg speedWind from/ knotsBaromVisibWave heightAir tempDewpointWater temp
2014-Aug-28 03:33N 36°41' E 000°04'1615.7
2014-Aug-28 02:33N 36°57' E 000°09'1616.3
2014-Aug-28 01:33N 37°12' E 000°15'1615.9
2014-Aug-28 00:31N 37°28' E 000°21'1615.8
2014-Aug-27 23:29N 37°44' E 000°27'1515.9
2014-Aug-27 22:33N 37°58' E 000°32'1716.0
2014-Aug-27 21:31N 38°14' E 000°38'1516.0
2014-Aug-27 20:33N 38°29' E 000°43'1616.1
2014-Aug-27 19:33N 38°44' E 000°49'1615.8
2014-Aug-27 18:33N 38°59' E 000°55'1615.7
2014-Aug-27 17:33N 39°14' E 000°60'1615.9
2014-Aug-27 16:33N 39°29' E 001°07'1616.2
2014-Aug-27 15:33N 39°45' E 001°12'1616.3
2014-Aug-27 14:33N 40°01' E 001°18'1616.1
2014-Aug-27 13:33N 40°16' E 001°24'1716.5
2014-Aug-27 12:33N 40°32' E 001°30'1515.0
2014-Aug-27 11:33N 40°47' E 001°29'1414.2
2014-Aug-27 10:33N 40°58' E 001°18'9 7.0
2014-Aug-27 09:18N 41°06' E 001°13'0 0.0
2014-Aug-27 07:11N 41°06' E 001°13'0 0.0
2014-Aug-27 01:23N 41°06' E 001°13'0 0.0
2014-Aug-27 00:29N 41°06' E 001°13'0 0.0
2014-Aug-26 21:11N 41°06' E 001°13'0 0.0
2014-Aug-26 20:11N 41°06' E 001°13'0 0.0
2014-Aug-26 19:29N 41°06' E 001°13'0 0.0
2014-Aug-26 11:05N 41°06' E 001°13'0 0.0
2014-Aug-26 10:13N 41°06' E 001°13'0 0.0
2014-Aug-26 01:11N 41°06' E 001°13'0 0.0
2014-Aug-26 00:05N 41°06' E 001°13'0 0.0
2014-Aug-25 23:23N 41°06' E 001°13'0 0.0
2014-Aug-25 20:05N 41°06' E 001°13'0 0.0
2014-Aug-25 19:11N 41°06' E 001°13'0 0.0
2014-Aug-25 17:29N 41°06' E 001°13'2 0.2
2014-Aug-25 07:27N 41°04' E 001°14'1 0.2
2014-Aug-25 01:04N 41°04' E 001°16'0 0.0
2014-Aug-25 00:28N 41°04' E 001°16'37 2.2
2014-Aug-24 07:33N 40°27' E 001°07'1515.2
2014-Aug-24 06:33N 40°12' E 001°05'1515.2
2014-Aug-24 05:33N 39°57' E 001°03'6515.2
2014-Aug-24 01:15N 38°52' E 000°58'8815.3
2014-Aug-23 19:32N 37°28' E 000°25'104 3.8
2014-Aug-22 16:13N 35°49' W 000°15'2 0.2
2014-Aug-22 02:21N 35°50' W 000°13'5 6.0
2014-Aug-22 01:31N 35°53' W 000°07'1 0.9
2014-Aug-22 00:33N 35°54' W 000°08'1 1.0
2014-Aug-21 23:13N 35°54' W 000°09'3 1.1
2014-Aug-21 20:32N 35°56' W 000°12'7 7.0
2014-Aug-21 19:33N 35°58' W 000°04'0 0.5
2014-Aug-21 18:34N 35°57' W 000°04'1 0.5
2014-Aug-21 17:33N 35°57' W 000°05'0 0.5
2014-Aug-21 16:33N 35°57' W 000°05'2 1.0
2014-Aug-21 14:25N 35°57' W 000°08'3 0.3
2014-Aug-21 03:12N 35°58' W 000°04'1 1.0
2014-Aug-21 02:33N 35°58' W 000°05'2 0.8
2014-Aug-20 23:33N 35°57' W 000°08'1 0.4
2014-Aug-20 21:33N 35°57' W 000°09'3 2.3
2014-Aug-20 20:08N 35°57' W 000°05'0 0.2
2014-Aug-20 19:32N 35°57' W 000°05'0 0.2
2014-Aug-20 18:26N 35°57' W 000°05'0 0.3
2014-Aug-20 17:33N 35°57' W 000°05'1 1.1
2014-Aug-20 16:33N 35°58' W 000°07'5 1.3
2014-Aug-20 12:31N 35°53' W 000°09'2 1.4
2014-Aug-20 11:05N 35°53' W 000°12'1 0.6
2014-Aug-20 08:30N 35°53' W 000°10'14 5.8
2014-Aug-20 06:08N 36°06' W 000°03'1 1.4
2014-Aug-20 05:30N 36°05' W 000°04'13 0.6
2014-Aug-19 08:20N 35°54' W 000°12'6 0.3
2014-Aug-18 12:20N 35°55' W 000°05'1 1.1
2014-Aug-18 11:26N 35°56' W 000°04'1 0.9
2014-Aug-18 10:30N 35°57' W 000°04'1 0.7
2014-Aug-18 09:32N 35°57' W 000°04'3 2.1
2014-Aug-18 08:10N 35°58' W 000°07'2210.4
2014-Aug-18 06:05N 36°13' W 000°26'1 0.8
2014-Aug-18 04:24N 36°15' W 000°26'  
Track history (hours):
 
Tides and Currents Weather Stations Pressure Air Temp Water Temp Dewpoint Dewpoint Depression Visibility Wind Speed Wind Dir Waves Ship Positions

Rhourd El Adra

Last reported at 2014-Aug-28 03:33 UTC. Time now 2014-Aug-28 05:29 UTC.
Position N 36°41' E 000°04'.

Length 156 m; draft 7.4 m.

Type: Ship (hazmat cat C). MMSI: 605026210.

Date/timePositionNaut miles runAvg speedWind from/ knotsBaromVisibWave heightAir tempDewpointWater temp
2014-Aug-28 03:33N 36°41' E 000°04'1615.7
2014-Aug-28 02:33N 36°57' E 000°09'1616.3
2014-Aug-28 01:33N 37°12' E 000°15'1615.9
2014-Aug-28 00:31N 37°28' E 000°21'1615.8
2014-Aug-27 23:29N 37°44' E 000°27'1515.9
2014-Aug-27 22:33N 37°58' E 000°32'1716.0
2014-Aug-27 21:31N 38°14' E 000°38'1516.0
2014-Aug-27 20:33N 38°29' E 000°43'1616.1
2014-Aug-27 19:33N 38°44' E 000°49'1615.8
2014-Aug-27 18:33N 38°59' E 000°55'1615.7
2014-Aug-27 17:33N 39°14' E 000°60'1615.9
2014-Aug-27 16:33N 39°29' E 001°07'1616.2
2014-Aug-27 15:33N 39°45' E 001°12'1616.3
2014-Aug-27 14:33N 40°01' E 001°18'1616.1
2014-Aug-27 13:33N 40°16' E 001°24'1716.5
2014-Aug-27 12:33N 40°32' E 001°30'1515.0
2014-Aug-27 11:33N 40°47' E 001°29'1414.2
2014-Aug-27 10:33N 40°58' E 001°18'9 7.0
2014-Aug-27 09:18N 41°06' E 001°13'0 0.0
2014-Aug-27 07:11N 41°06' E 001°13'0 0.0
2014-Aug-27 01:23N 41°06' E 001°13'0 0.0
2014-Aug-27 00:29N 41°06' E 001°13'0 0.0
2014-Aug-26 21:11N 41°06' E 001°13'0 0.0
2014-Aug-26 20:11N 41°06' E 001°13'0 0.0
2014-Aug-26 19:29N 41°06' E 001°13'0 0.0
2014-Aug-26 11:05N 41°06' E 001°13'0 0.0
2014-Aug-26 10:13N 41°06' E 001°13'0 0.0
2014-Aug-26 01:11N 41°06' E 001°13'0 0.0
2014-Aug-26 00:05N 41°06' E 001°13'0 0.0
2014-Aug-25 23:23N 41°06' E 001°13'0 0.0
2014-Aug-25 20:05N 41°06' E 001°13'0 0.0
2014-Aug-25 19:11N 41°06' E 001°13'0 0.0
2014-Aug-25 17:29N 41°06' E 001°13'2 0.2
2014-Aug-25 07:27N 41°04' E 001°14'1 0.2
2014-Aug-25 01:04N 41°04' E 001°16'0 0.0
2014-Aug-25 00:28N 41°04' E 001°16'37 2.2
2014-Aug-24 07:33N 40°27' E 001°07'1515.2
2014-Aug-24 06:33N 40°12' E 001°05'1515.2
2014-Aug-24 05:33N 39°57' E 001°03'6515.2
2014-Aug-24 01:15N 38°52' E 000°58'8815.3
2014-Aug-23 19:32N 37°28' E 000°25'104 3.8
2014-Aug-22 16:13N 35°49' W 000°15'2 0.2
2014-Aug-22 02:21N 35°50' W 000°13'5 6.0
2014-Aug-22 01:31N 35°53' W 000°07'1 0.9
2014-Aug-22 00:33N 35°54' W 000°08'1 1.0
2014-Aug-21 23:13N 35°54' W 000°09'3 1.1
2014-Aug-21 20:32N 35°56' W 000°12'7 7.0
2014-Aug-21 19:33N 35°58' W 000°04'0 0.5
2014-Aug-21 18:34N 35°57' W 000°04'1 0.5
2014-Aug-21 17:33N 35°57' W 000°05'0 0.5
2014-Aug-21 16:33N 35°57' W 000°05'2 1.0
2014-Aug-21 14:25N 35°57' W 000°08'3 0.3
2014-Aug-21 03:12N 35°58' W 000°04'1 1.0
2014-Aug-21 02:33N 35°58' W 000°05'2 0.8
2014-Aug-20 23:33N 35°57' W 000°08'1 0.4
2014-Aug-20 21:33N 35°57' W 000°09'3 2.3
2014-Aug-20 20:08N 35°57' W 000°05'0 0.2
2014-Aug-20 19:32N 35°57' W 000°05'0 0.2
2014-Aug-20 18:26N 35°57' W 000°05'0 0.3
2014-Aug-20 17:33N 35°57' W 000°05'1 1.1
2014-Aug-20 16:33N 35°58' W 000°07'5 1.3
2014-Aug-20 12:31N 35°53' W 000°09'2 1.4
2014-Aug-20 11:05N 35°53' W 000°12'1 0.6
2014-Aug-20 08:30N 35°53' W 000°10'14 5.8
2014-Aug-20 06:08N 36°06' W 000°03'1 1.4
2014-Aug-20 05:30N 36°05' W 000°04'13 0.6
2014-Aug-19 08:20N 35°54' W 000°12'6 0.3
2014-Aug-18 12:20N 35°55' W 000°05'1 1.1
2014-Aug-18 11:26N 35°56' W 000°04'1 0.9
2014-Aug-18 10:30N 35°57' W 000°04'1 0.7
2014-Aug-18 09:32N 35°57' W 000°04'3 2.1
2014-Aug-18 08:10N 35°58' W 000°07'2210.4
2014-Aug-18 06:05N 36°13' W 000°26'1 0.8
2014-Aug-18 04:24N 36°15' W 000°26'  

Dump ship's entire track history